LFPM

Melun-Villaroche Air Base

Airport
ICAO code
LFPM
Summary
ICAO Region
EUR
ICAO Territory
Location

, Ile-de-France

Serving
Melun
Elevation
302 ft
Coordinates
48° 36' 17" N , 2° 40' 16" E
Metar
LFPM 151930Z AUTO 22012KT 9999 SCT039 BKN047 BKN056 16/10 Q1008

Runways

Designator Length Width Surface Rops
1/19 1300 30 ASP Yes/Yes
10/28 1975 45 ASP Yes/Yes

Airport map

Aerial View

SKYbrary Partners:

Safety knowledge contributed by: